createdAt,value
2018-08-06T00:00:20.035Z,26.93
2018-08-06T00:00:52.049Z,26.82
2018-08-06T00:01:24.070Z,26.69
2018-08-06T00:01:56.110Z,26.59
2018-08-06T00:02:28.184Z,26.52
2018-08-06T00:03:00.202Z,26.46
2018-08-06T00:03:32.215Z,26.42
2018-08-06T00:04:04.232Z,26.40
2018-08-06T00:04:36.243Z,26.38
2018-08-06T00:05:08.253Z,26.40
2018-08-06T00:05:40.318Z,26.39
2018-08-06T00:06:12.331Z,26.37
2018-08-06T00:06:44.354Z,26.37
2018-08-06T00:07:16.370Z,26.39
2018-08-06T00:07:48.461Z,26.44
2018-08-06T00:08:20.465Z,26.46
2018-08-06T00:08:52.495Z,26.45
2018-08-06T00:09:24.498Z,26.44
2018-08-06T00:09:56.514Z,26.41
2018-08-06T00:10:28.545Z,26.45
2018-08-06T00:11:00.562Z,26.46
2018-08-06T00:11:32.582Z,26.47
2018-08-06T00:12:04.605Z,26.48
2018-08-06T00:12:36.620Z,26.48
2018-08-06T00:13:08.637Z,26.51
2018-08-06T00:13:40.674Z,26.52
2018-08-06T00:14:12.769Z,26.55
2018-08-06T00:14:44.781Z,26.60
2018-08-06T00:15:16.828Z,26.62
2018-08-06T00:15:48.807Z,26.66
2018-08-06T00:16:20.838Z,26.66
2018-08-06T00:16:52.877Z,26.60
2018-08-06T00:17:24.889Z,26.55
2018-08-06T00:17:56.898Z,26.52
2018-08-06T00:18:28.907Z,26.48
2018-08-06T00:19:00.912Z,26.46
2018-08-06T00:19:32.937Z,26.45
2018-08-06T00:20:04.957Z,26.45
2018-08-06T00:20:36.988Z,26.43
2018-08-06T00:21:09.043Z,26.41
2018-08-06T00:21:41.051Z,26.40
2018-08-06T00:22:13.065Z,26.41
2018-08-06T00:22:45.086Z,26.42
2018-08-06T00:23:17.098Z,26.42
2018-08-06T00:23:49.119Z,26.43
2018-08-06T00:24:21.158Z,26.46
2018-08-06T00:24:53.177Z,26.48
2018-08-06T00:25:25.185Z,26.51
2018-08-06T00:25:57.190Z,26.55
2018-08-06T00:26:29.211Z,26.57
2018-08-06T00:27:01.282Z,26.60
2018-08-06T00:27:33.295Z,26.63
2018-08-06T00:28:05.327Z,26.68
2018-08-06T00:28:37.334Z,26.75
2018-08-06T00:29:09.357Z,26.80
2018-08-06T00:29:41.407Z,26.88
2018-08-06T00:30:13.377Z,26.91
2018-08-06T00:30:45.380Z,26.87
2018-08-06T00:31:17.438Z,26.82
2018-08-06T00:31:49.457Z,26.76
2018-08-06T00:32:21.462Z,26.72
2018-08-06T00:32:53.525Z,26.65
2018-08-06T00:33:25.521Z,26.60
2018-08-06T00:33:57.518Z,26.53
2018-08-06T00:34:29.530Z,26.50
2018-08-06T00:35:01.554Z,26.48
2018-08-06T00:35:33.574Z,26.42
2018-08-06T00:36:05.585Z,26.35
2018-08-06T00:36:37.592Z,26.34
2018-08-06T00:37:09.603Z,26.34
2018-08-06T00:37:41.635Z,26.34
2018-08-06T00:38:13.639Z,26.31
2018-08-06T00:38:45.681Z,26.28
2018-08-06T00:39:17.692Z,26.27
2018-08-06T00:39:49.693Z,26.30
2018-08-06T00:40:21.715Z,26.35
2018-08-06T00:40:53.719Z,26.37
2018-08-06T00:41:25.765Z,26.34
2018-08-06T00:41:57.790Z,26.35
2018-08-06T00:42:29.799Z,26.34
2018-08-06T00:43:01.824Z,26.34
2018-08-06T00:43:33.830Z,26.30
2018-08-06T00:44:05.855Z,26.31
2018-08-06T00:44:37.884Z,26.32
2018-08-06T00:45:09.886Z,26.30
2018-08-06T00:45:41.962Z,26.31
2018-08-06T00:46:13.967Z,26.33
2018-08-06T00:46:46.029Z,26.35
2018-08-06T00:47:18.038Z,26.39
2018-08-06T00:47:50.208Z,26.41
2018-08-06T00:48:22.199Z,26.44
2018-08-06T00:48:54.313Z,26.45
2018-08-06T00:49:26.304Z,26.46
2018-08-06T00:49:58.338Z,26.47
2018-08-06T00:50:30.331Z,26.46
2018-08-06T00:51:02.349Z,26.46
2018-08-06T00:51:34.372Z,26.46
2018-08-06T00:52:06.393Z,26.45
2018-08-06T00:52:38.421Z,26.47
2018-08-06T00:53:10.434Z,26.50
2018-08-06T00:53:42.457Z,26.53
2018-08-06T00:54:14.470Z,26.52
2018-08-06T00:54:46.519Z,26.53
2018-08-06T00:55:18.533Z,26.52
2018-08-06T00:55:50.554Z,26.52
2018-08-06T00:56:22.569Z,26.49
2018-08-06T00:56:54.579Z,26.47
2018-08-06T00:57:26.597Z,26.45
2018-08-06T00:57:58.610Z,26.41
2018-08-06T00:58:30.626Z,26.38
2018-08-06T00:59:02.630Z,26.33
2018-08-06T00:59:34.662Z,26.32
2018-08-06T01:00:06.684Z,26.31
2018-08-06T01:00:38.701Z,26.30
2018-08-06T01:01:10.716Z,26.31
2018-08-06T01:01:42.744Z,26.32
2018-08-06T01:02:14.759Z,26.25
2018-08-06T01:02:46.767Z,26.22
2018-08-06T01:03:18.781Z,26.21
2018-08-06T01:03:50.790Z,26.20
2018-08-06T01:04:22.803Z,26.20
2018-08-06T01:04:54.817Z,26.21
2018-08-06T01:05:26.838Z,26.22
2018-08-06T01:05:58.853Z,26.20
2018-08-06T01:06:30.849Z,26.18
2018-08-06T01:07:02.895Z,26.16
2018-08-06T01:07:34.915Z,26.12
2018-08-06T01:08:06.927Z,26.12
2018-08-06T01:08:38.941Z,26.15
2018-08-06T01:09:10.962Z,26.14
2018-08-06T01:09:42.971Z,26.14
2018-08-06T01:10:15.387Z,26.16
2018-08-06T01:10:47.270Z,26.17
2018-08-06T01:11:19.289Z,26.16
2018-08-06T01:11:51.310Z,26.14
2018-08-06T01:12:23.371Z,26.14
2018-08-06T01:12:55.378Z,26.18
2018-08-06T01:13:27.394Z,26.23
2018-08-06T01:13:59.507Z,26.27
2018-08-06T01:14:31.527Z,26.29
2018-08-06T01:15:03.538Z,26.34
2018-08-06T01:15:35.555Z,26.38
2018-08-06T01:16:07.572Z,26.40
2018-08-06T01:16:39.583Z,26.43
2018-08-06T01:17:11.585Z,26.43
2018-08-06T01:17:43.620Z,26.42
2018-08-06T01:18:15.659Z,26.41
2018-08-06T01:18:47.668Z,26.35
2018-08-06T01:19:19.695Z,26.32
2018-08-06T01:19:51.711Z,26.29
2018-08-06T01:20:23.717Z,26.27
2018-08-06T01:20:55.775Z,26.24
2018-08-06T01:21:27.790Z,26.21
2018-08-06T01:21:59.818Z,26.18
2018-08-06T01:22:31.814Z,26.14
2018-08-06T01:23:03.843Z,26.15
2018-08-06T01:23:35.888Z,26.18
2018-08-06T01:24:07.891Z,26.16
2018-08-06T01:24:39.919Z,26.12
2018-08-06T01:25:11.925Z,26.06
2018-08-06T01:25:43.966Z,26.03
2018-08-06T01:26:15.991Z,26.01
2018-08-06T01:26:47.998Z,26.01
2018-08-06T01:27:20.027Z,26.00
2018-08-06T01:27:52.028Z,25.98
2018-08-06T01:28:24.044Z,25.98
2018-08-06T01:28:56.077Z,25.99
2018-08-06T01:29:28.077Z,26.03
2018-08-06T01:30:00.095Z,26.06
2018-08-06T01:30:32.131Z,26.10
2018-08-06T01:31:04.139Z,26.12
2018-08-06T01:31:36.155Z,26.13
2018-08-06T01:32:08.167Z,26.12
2018-08-06T01:32:40.185Z,26.11
2018-08-06T01:33:12.192Z,26.14
2018-08-06T01:33:44.202Z,26.11
2018-08-06T01:34:16.233Z,26.11
2018-08-06T01:34:48.302Z,26.11
2018-08-06T01:35:20.307Z,26.07
2018-08-06T01:35:52.322Z,26.01
2018-08-06T01:36:24.332Z,25.98
2018-08-06T01:36:56.357Z,25.94
2018-08-06T01:37:28.366Z,25.94
2018-08-06T01:38:00.583Z,25.91
2018-08-06T01:38:32.660Z,25.89
2018-08-06T01:39:04.664Z,25.90
2018-08-06T01:39:36.718Z,25.89
2018-08-06T01:40:08.712Z,25.88
2018-08-06T01:40:40.817Z,25.87
2018-08-06T01:41:12.861Z,25.83
2018-08-06T01:41:44.931Z,25.80
2018-08-06T01:42:17.101Z,25.80
2018-08-06T01:42:49.130Z,25.74
2018-08-06T01:43:21.145Z,25.73
2018-08-06T01:43:53.158Z,25.73
2018-08-06T01:44:25.154Z,25.73
2018-08-06T01:44:57.173Z,25.72
2018-08-06T01:45:29.198Z,25.69
2018-08-06T01:46:01.325Z,25.66
2018-08-06T01:46:33.330Z,25.66
2018-08-06T01:47:05.321Z,25.68
2018-08-06T01:47:37.339Z,25.73
2018-08-06T01:48:09.342Z,25.78
2018-08-06T01:48:41.367Z,25.84
2018-08-06T01:49:13.390Z,25.86
2018-08-06T01:49:45.422Z,25.88
2018-08-06T01:50:17.441Z,25.90
2018-08-06T01:50:49.458Z,25.92
2018-08-06T01:51:21.463Z,25.96
2018-08-06T01:51:53.495Z,25.97
2018-08-06T01:52:25.506Z,25.94
2018-08-06T01:52:57.520Z,25.97
2018-08-06T01:53:29.518Z,26.00
2018-08-06T01:54:01.543Z,26.00
2018-08-06T01:54:33.544Z,26.02
2018-08-06T01:55:05.550Z,26.03
2018-08-06T01:55:37.569Z,26.00
2018-08-06T01:56:09.602Z,25.90
2018-08-06T01:56:41.634Z,25.86
2018-08-06T01:57:13.641Z,25.83
2018-08-06T01:57:45.666Z,25.79
2018-08-06T01:58:17.719Z,25.78
2018-08-06T01:58:49.729Z,25.74
2018-08-06T01:59:21.789Z,25.68
2018-08-06T01:59:53.763Z,25.57
2018-08-06T02:00:25.774Z,25.55
2018-08-06T02:00:57.789Z,25.52
2018-08-06T02:01:29.790Z,25.48
2018-08-06T02:02:01.809Z,25.47
2018-08-06T02:02:33.817Z,25.46
2018-08-06T02:03:05.853Z,25.49
2018-08-06T02:03:37.885Z,25.50
2018-08-06T02:04:10.118Z,25.52
2018-08-06T02:04:42.140Z,25.56
2018-08-06T02:05:14.183Z,25.57
2018-08-06T02:05:46.210Z,25.58
2018-08-06T02:06:18.206Z,25.55
2018-08-06T02:06:50.227Z,25.55
2018-08-06T02:07:22.248Z,25.55
2018-08-06T02:07:54.273Z,25.56
2018-08-06T02:08:26.281Z,25.56
2018-08-06T02:08:58.300Z,25.51
2018-08-06T02:09:30.307Z,25.50
2018-08-06T02:10:02.322Z,25.50
2018-08-06T02:10:34.330Z,25.48
2018-08-06T02:11:06.346Z,25.48
2018-08-06T02:11:38.354Z,25.46
2018-08-06T02:12:10.365Z,25.47
2018-08-06T02:12:42.376Z,25.44
2018-08-06T02:13:14.387Z,25.43
2018-08-06T02:13:46.421Z,25.42
2018-08-06T02:14:18.437Z,25.39
2018-08-06T02:14:50.457Z,25.38
2018-08-06T02:15:22.469Z,25.39
2018-08-06T02:15:54.494Z,25.38
2018-08-06T02:16:26.547Z,25.39
2018-08-06T02:16:58.572Z,25.41
2018-08-06T02:17:30.577Z,25.45
2018-08-06T02:18:02.597Z,25.47
2018-08-06T02:18:34.617Z,25.50
2018-08-06T02:19:06.625Z,25.48
2018-08-06T02:19:38.642Z,25.42
2018-08-06T02:20:10.669Z,25.38
2018-08-06T02:20:42.683Z,25.31
2018-08-06T02:21:14.703Z,25.23
2018-08-06T02:21:46.761Z,25.22
2018-08-06T02:22:18.780Z,25.23
2018-08-06T02:22:50.797Z,25.24
2018-08-06T02:23:22.804Z,25.26
2018-08-06T02:23:54.824Z,25.24
2018-08-06T02:24:26.839Z,25.21
2018-08-06T02:24:58.846Z,25.25
2018-08-06T02:25:30.884Z,25.25
2018-08-06T02:26:02.924Z,25.21
2018-08-06T02:26:34.939Z,25.18
2018-08-06T02:27:06.981Z,25.17
2018-08-06T02:27:38.998Z,25.18
2018-08-06T02:28:11.013Z,25.17
2018-08-06T02:28:43.022Z,25.20
2018-08-06T02:29:15.109Z,25.22
2018-08-06T02:29:47.123Z,25.20
2018-08-06T02:30:19.138Z,25.21
2018-08-06T02:30:51.405Z,25.23
2018-08-06T02:31:23.370Z,25.20
2018-08-06T02:31:55.383Z,25.22
2018-08-06T02:32:27.394Z,25.23
2018-08-06T02:32:59.410Z,25.25
2018-08-06T02:33:31.447Z,25.33
2018-08-06T02:34:03.475Z,25.36
2018-08-06T02:34:35.499Z,25.42
2018-08-06T02:35:07.535Z,25.45
2018-08-06T02:35:39.547Z,25.48
2018-08-06T02:36:11.631Z,25.50
2018-08-06T02:36:43.639Z,25.52
2018-08-06T02:37:15.654Z,25.53
2018-08-06T02:37:47.669Z,25.55
2018-08-06T02:38:19.674Z,25.60
2018-08-06T02:38:51.682Z,25.65
2018-08-06T02:39:23.695Z,25.70
2018-08-06T02:39:55.702Z,25.76
2018-08-06T02:40:27.725Z,25.79
2018-08-06T02:40:59.746Z,25.84
2018-08-06T02:41:31.781Z,25.94
2018-08-06T02:42:03.799Z,25.99
2018-08-06T02:42:35.813Z,26.05
2018-08-06T02:43:07.839Z,26.09
2018-08-06T02:43:39.842Z,26.13
2018-08-06T02:44:11.853Z,26.16
2018-08-06T02:44:43.874Z,26.14
2018-08-06T02:45:15.902Z,26.17
2018-08-06T02:45:47.921Z,26.12
2018-08-06T02:46:19.938Z,26.08
2018-08-06T02:46:51.946Z,26.00
2018-08-06T02:47:24.011Z,25.96
2018-08-06T02:47:56.014Z,25.96
2018-08-06T02:48:28.026Z,25.95
2018-08-06T02:49:00.034Z,25.94
2018-08-06T02:49:32.047Z,25.93
2018-08-06T02:50:04.105Z,25.93
2018-08-06T02:50:36.118Z,26.01
2018-08-06T02:51:08.152Z,26.01
2018-08-06T02:51:40.151Z,25.99
2018-08-06T02:52:12.158Z,26.02
2018-08-06T02:52:44.177Z,26.02
2018-08-06T02:53:16.197Z,26.03
2018-08-06T02:53:48.211Z,26.05
2018-08-06T02:54:20.221Z,26.03
2018-08-06T02:54:52.242Z,25.99
2018-08-06T02:55:24.251Z,25.98
2018-08-06T02:55:56.406Z,25.98
2018-08-06T02:56:28.439Z,26.03
2018-08-06T02:57:00.443Z,26.03
2018-08-06T02:57:32.454Z,26.04
2018-08-06T02:58:04.483Z,26.05
2018-08-06T02:58:36.626Z,26.06
2018-08-06T02:59:08.626Z,26.01
2018-08-06T02:59:40.644Z,25.94
2018-08-06T03:00:12.771Z,25.92
2018-08-06T03:00:44.664Z,25.90
2018-08-06T03:01:16.674Z,25.91
2018-08-06T03:01:48.683Z,25.89
2018-08-06T03:02:20.723Z,25.86
2018-08-06T03:02:52.738Z,25.80
2018-08-06T03:03:24.751Z,25.77
2018-08-06T03:03:56.764Z,25.78
2018-08-06T03:04:29.171Z,25.78
2018-08-06T03:05:01.075Z,25.75
2018-08-06T03:05:33.083Z,25.75
2018-08-06T03:06:05.103Z,25.77
2018-08-06T03:06:37.121Z,25.73
2018-08-06T03:07:09.183Z,25.75
2018-08-06T03:07:41.217Z,25.75
2018-08-06T03:08:13.230Z,25.71
2018-08-06T03:08:45.243Z,25.72
2018-08-06T03:09:17.256Z,25.72
2018-08-06T03:09:49.271Z,25.73
2018-08-06T03:10:21.281Z,25.75
2018-08-06T03:10:53.294Z,25.75
2018-08-06T03:11:25.304Z,25.70
2018-08-06T03:11:57.309Z,25.67
2018-08-06T03:12:29.324Z,25.64
2018-08-06T03:13:01.346Z,25.61
2018-08-06T03:13:33.342Z,25.57
2018-08-06T03:14:05.366Z,25.60
2018-08-06T03:14:37.396Z,25.64
2018-08-06T03:15:09.428Z,25.66
2018-08-06T03:15:41.424Z,25.66
2018-08-06T03:16:13.450Z,25.73
2018-08-06T03:16:45.469Z,25.82
2018-08-06T03:17:17.537Z,25.80
2018-08-06T03:17:49.510Z,25.81
2018-08-06T03:18:21.527Z,25.85
2018-08-06T03:18:53.538Z,25.88
2018-08-06T03:19:25.557Z,25.85
2018-08-06T03:19:57.579Z,25.81
2018-08-06T03:20:29.574Z,25.76
2018-08-06T03:21:01.598Z,25.72
2018-08-06T03:21:33.610Z,25.72
2018-08-06T03:22:05.642Z,25.70
2018-08-06T03:22:37.667Z,25.63
2018-08-06T03:23:09.688Z,25.59
2018-08-06T03:23:41.699Z,25.62
2018-08-06T03:24:13.707Z,25.55
2018-08-06T03:24:45.719Z,25.52
2018-08-06T03:25:17.796Z,25.49
2018-08-06T03:25:49.766Z,25.48
2018-08-06T03:26:21.789Z,25.52
2018-08-06T03:26:53.798Z,25.52
2018-08-06T03:27:25.818Z,25.55
2018-08-06T03:27:57.832Z,25.56
2018-08-06T03:28:29.852Z,25.57
2018-08-06T03:29:01.867Z,25.54
2018-08-06T03:29:33.916Z,25.54
2018-08-06T03:30:05.883Z,25.50
2018-08-06T03:30:37.895Z,25.50
2018-08-06T03:31:09.912Z,25.49
2018-08-06T03:31:41.926Z,25.45
2018-08-06T03:32:13.988Z,25.38
2018-08-06T03:32:46.011Z,25.36
2018-08-06T03:33:18.029Z,25.28
2018-08-06T03:33:50.041Z,25.24
2018-08-06T03:34:22.051Z,25.25
2018-08-06T03:34:54.121Z,25.28
2018-08-06T03:35:26.167Z,25.29
2018-08-06T03:35:58.167Z,25.38
2018-08-06T03:36:30.206Z,25.52
2018-08-06T03:37:02.602Z,25.62
2018-08-06T03:37:34.505Z,25.72
2018-08-06T03:38:06.502Z,25.82
2018-08-06T03:38:38.534Z,25.92
2018-08-06T03:39:10.536Z,26.00
2018-08-06T03:39:42.550Z,26.02
2018-08-06T03:40:14.595Z,26.05
2018-08-06T03:40:46.587Z,26.08
2018-08-06T03:41:18.609Z,26.10
2018-08-06T03:41:50.637Z,26.14
2018-08-06T03:42:22.653Z,26.15
2018-08-06T03:42:54.665Z,26.13
2018-08-06T03:43:26.674Z,26.12
2018-08-06T03:43:58.679Z,26.13
2018-08-06T03:44:30.697Z,26.11
2018-08-06T03:45:02.704Z,26.09
2018-08-06T03:45:34.723Z,26.06
2018-08-06T03:46:06.744Z,26.05
2018-08-06T03:46:38.751Z,26.07
2018-08-06T03:47:10.884Z,26.09
2018-08-06T03:47:42.877Z,26.07
2018-08-06T03:48:14.895Z,26.03
2018-08-06T03:48:46.930Z,26.02
2018-08-06T03:49:18.940Z,25.98
2018-08-06T03:49:50.948Z,25.98
2018-08-06T03:50:23.048Z,25.92
2018-08-06T03:50:55.079Z,25.93
2018-08-06T03:51:27.059Z,25.97
2018-08-06T03:51:59.075Z,26.01
2018-08-06T03:52:31.081Z,26.03
2018-08-06T03:53:03.115Z,26.07
2018-08-06T03:53:35.131Z,26.10
2018-08-06T03:54:07.158Z,26.13
2018-08-06T03:54:39.166Z,26.13
2018-08-06T03:55:11.180Z,26.09
2018-08-06T03:55:43.193Z,26.05
2018-08-06T03:56:15.203Z,26.01
2018-08-06T03:56:47.226Z,25.98
2018-08-06T03:57:19.323Z,25.94
2018-08-06T03:57:51.358Z,25.88
2018-08-06T03:58:23.396Z,25.85
2018-08-06T03:58:55.507Z,25.79
2018-08-06T03:59:27.478Z,25.78
2018-08-06T03:59:59.494Z,25.78
2018-08-06T04:00:31.525Z,25.78
2018-08-06T04:01:03.542Z,25.79
2018-08-06T04:01:35.603Z,25.78
2018-08-06T04:02:07.622Z,25.78
2018-08-06T04:02:39.636Z,25.79
2018-08-06T04:03:11.653Z,25.79
2018-08-06T04:03:43.676Z,25.80
2018-08-06T04:04:15.683Z,25.81
2018-08-06T04:04:47.690Z,25.87
2018-08-06T04:05:19.699Z,25.91
2018-08-06T04:05:51.733Z,25.94
2018-08-06T04:06:23.738Z,26.02
2018-08-06T04:06:55.767Z,26.12
2018-08-06T04:07:27.795Z,26.17
2018-08-06T04:07:59.820Z,26.15
2018-08-06T04:08:31.859Z,26.14
2018-08-06T04:09:03.879Z,26.12
2018-08-06T04:09:35.887Z,26.10
2018-08-06T04:10:07.893Z,26.06
2018-08-06T04:10:39.914Z,26.05
2018-08-06T04:11:11.925Z,26.02
2018-08-06T04:11:43.938Z,26.05
2018-08-06T04:12:16.362Z,26.06
2018-08-06T04:12:48.258Z,26.07
2018-08-06T04:13:20.287Z,26.05
2018-08-06T04:13:52.301Z,26.04
2018-08-06T04:14:24.314Z,26.02
2018-08-06T04:14:56.337Z,25.95
2018-08-06T04:15:28.354Z,25.97
2018-08-06T04:16:00.512Z,26.04
2018-08-06T04:16:32.537Z,26.07
2018-08-06T04:17:04.554Z,26.03
2018-08-06T04:17:36.571Z,26.02
2018-08-06T04:18:08.606Z,26.01
2018-08-06T04:18:40.624Z,26.04
2018-08-06T04:19:12.633Z,26.03
2018-08-06T04:19:44.681Z,26.06
2018-08-06T04:20:16.653Z,26.07
2018-08-06T04:20:48.671Z,26.05
2018-08-06T04:21:20.722Z,26.08
2018-08-06T04:21:52.751Z,26.08
2018-08-06T04:22:24.780Z,26.09
2018-08-06T04:22:56.798Z,26.09
2018-08-06T04:23:28.805Z,26.04
2018-08-06T04:24:00.827Z,26.04
2018-08-06T04:24:32.846Z,26.03
2018-08-06T04:25:04.856Z,26.02
2018-08-06T04:25:36.885Z,26.04
2018-08-06T04:26:08.896Z,26.03
2018-08-06T04:26:40.910Z,26.03
2018-08-06T04:27:12.917Z,26.03
2018-08-06T04:27:44.938Z,26.02
2018-08-06T04:28:16.950Z,25.99
2018-08-06T04:28:48.982Z,25.98
2018-08-06T04:29:20.984Z,26.02
2018-08-06T04:29:53.007Z,26.00
2018-08-06T04:30:25.018Z,26.01
2018-08-06T04:30:57.030Z,26.02
2018-08-06T04:31:29.038Z,26.02
2018-08-06T04:32:01.047Z,26.03
2018-08-06T04:32:33.068Z,26.03
2018-08-06T04:33:05.127Z,26.06
2018-08-06T04:33:37.485Z,26.03
2018-08-06T04:34:09.376Z,26.01
2018-08-06T04:34:41.387Z,26.03
2018-08-06T04:35:13.405Z,26.03
2018-08-06T04:35:45.448Z,26.02
2018-08-06T04:36:17.444Z,26.03
2018-08-06T04:36:49.454Z,26.03
2018-08-06T04:37:21.470Z,26.02
2018-08-06T04:37:53.485Z,26.04
2018-08-06T04:38:25.584Z,26.03
2018-08-06T04:38:57.539Z,26.02
2018-08-06T04:39:29.568Z,26.02
2018-08-06T04:40:01.576Z,26.01
2018-08-06T04:40:33.630Z,25.99
2018-08-06T04:41:05.650Z,26.00
2018-08-06T04:41:37.671Z,26.05
2018-08-06T04:42:09.683Z,26.05
2018-08-06T04:42:41.710Z,26.06
2018-08-06T04:43:13.975Z,26.05
2018-08-06T04:43:45.996Z,26.07
2018-08-06T04:44:18.018Z,26.10
2018-08-06T04:44:50.036Z,26.12
2018-08-06T04:45:22.056Z,26.10
2018-08-06T04:45:54.479Z,26.11
2018-08-06T04:46:26.380Z,26.11
2018-08-06T04:46:58.403Z,26.12
2018-08-06T04:47:30.416Z,26.15
2018-08-06T04:48:02.432Z,26.17
2018-08-06T04:48:34.460Z,26.17
2018-08-06T04:49:06.473Z,26.15
2018-08-06T04:49:38.498Z,26.17
2018-08-06T04:50:10.513Z,26.18
2018-08-06T04:50:42.570Z,26.21
2018-08-06T04:51:14.596Z,26.24
2018-08-06T04:51:46.604Z,26.27
2018-08-06T04:52:18.631Z,26.28
2018-08-06T04:52:50.634Z,26.28
2018-08-06T04:53:22.641Z,26.29
2018-08-06T04:53:54.664Z,26.33
2018-08-06T04:54:26.690Z,26.33
2018-08-06T04:54:58.703Z,26.32
2018-08-06T04:55:30.805Z,26.26
2018-08-06T04:56:02.830Z,26.23
2018-08-06T04:56:34.864Z,26.23
2018-08-06T04:57:06.883Z,26.26
2018-08-06T04:57:38.951Z,26.25
2018-08-06T04:58:10.979Z,26.24
2018-08-06T04:58:42.992Z,26.21
2018-08-06T04:59:15.007Z,26.20
2018-08-06T04:59:47.067Z,26.25
2018-08-06T05:00:19.053Z,26.30
2018-08-06T05:00:51.148Z,26.30
2018-08-06T05:01:23.166Z,26.29
2018-08-06T05:01:55.174Z,26.25
2018-08-06T05:02:27.217Z,26.23
2018-08-06T05:02:59.294Z,26.22
2018-08-06T05:03:31.321Z,26.25
2018-08-06T05:04:03.330Z,26.24
2018-08-06T05:04:35.360Z,26.25
2018-08-06T05:05:07.377Z,26.23
2018-08-06T05:05:39.386Z,26.24
2018-08-06T05:06:11.401Z,26.22
2018-08-06T05:06:43.434Z,26.20
2018-08-06T05:07:15.438Z,26.19
2018-08-06T05:07:47.475Z,26.20
2018-08-06T05:08:19.470Z,26.17
2018-08-06T05:08:51.491Z,26.13
2018-08-06T05:09:23.507Z,26.16
2018-08-06T05:09:55.548Z,26.12
2018-08-06T05:10:27.567Z,26.09
2018-08-06T05:10:59.586Z,26.09
2018-08-06T05:11:31.607Z,26.13
2018-08-06T05:12:03.645Z,26.15
2018-08-06T05:12:35.665Z,26.16
2018-08-06T05:13:07.687Z,26.14
2018-08-06T05:13:39.755Z,26.13
2018-08-06T05:14:11.744Z,26.16
2018-08-06T05:14:43.766Z,26.17
2018-08-06T05:15:15.774Z,26.15
2018-08-06T05:15:47.793Z,26.11
2018-08-06T05:16:19.822Z,26.10
2018-08-06T05:16:51.853Z,26.09
2018-08-06T05:17:23.881Z,26.09
2018-08-06T05:17:55.888Z,26.08
2018-08-06T05:18:28.018Z,26.09
2018-08-06T05:19:00.378Z,26.09
2018-08-06T05:19:32.432Z,26.11
2018-08-06T05:20:04.402Z,26.15
2018-08-06T05:20:36.416Z,26.17
2018-08-06T05:21:08.423Z,26.20
2018-08-06T05:21:40.437Z,26.18
2018-08-06T05:22:12.451Z,26.11
2018-08-06T05:22:44.481Z,26.09
2018-08-06T05:23:16.487Z,26.07
2018-08-06T05:23:48.509Z,26.03
2018-08-06T05:24:20.514Z,26.05
2018-08-06T05:24:52.604Z,26.07
2018-08-06T05:25:24.542Z,26.09
2018-08-06T05:25:56.575Z,26.15
2018-08-06T05:26:28.600Z,26.18
2018-08-06T05:27:00.611Z,26.17
2018-08-06T05:27:32.631Z,26.17
2018-08-06T05:28:04.736Z,26.19
2018-08-06T05:28:36.734Z,26.15
2018-08-06T05:29:08.749Z,26.09
2018-08-06T05:29:40.761Z,26.05
2018-08-06T05:30:12.783Z,26.02
2018-08-06T05:30:44.805Z,26.03
2018-08-06T05:31:16.856Z,26.03
2018-08-06T05:31:48.839Z,26.00
2018-08-06T05:32:20.853Z,26.01
2018-08-06T05:32:52.884Z,26.02
2018-08-06T05:33:24.902Z,26.02
2018-08-06T05:33:56.929Z,26.04
2018-08-06T05:34:28.949Z,26.03
2018-08-06T05:35:00.987Z,26.02
2018-08-06T05:35:33.120Z,26.10
2018-08-06T05:36:05.142Z,26.07
2018-08-06T05:36:37.141Z,26.04
2018-08-06T05:37:09.153Z,26.11
2018-08-06T05:37:41.161Z,26.15
2018-08-06T05:38:13.222Z,26.13
2018-08-06T05:38:45.246Z,26.12
2018-08-06T05:39:17.256Z,26.15
2018-08-06T05:39:49.267Z,26.13
2018-08-06T05:40:21.281Z,26.14
2018-08-06T05:40:53.292Z,26.13
2018-08-06T05:41:25.329Z,26.12
2018-08-06T05:41:57.331Z,26.13
2018-08-06T05:42:29.340Z,26.15
2018-08-06T05:43:01.352Z,26.12
2018-08-06T05:43:33.426Z,26.06
2018-08-06T05:44:05.442Z,26.06
2018-08-06T05:44:37.449Z,26.06
2018-08-06T05:45:09.483Z,26.09
2018-08-06T05:45:41.489Z,26.11
2018-08-06T05:46:13.503Z,26.18
2018-08-06T05:46:45.511Z,26.20
2018-08-06T05:47:17.527Z,26.18
2018-08-06T05:47:49.526Z,26.13
2018-08-06T05:48:21.556Z,26.08
2018-08-06T05:48:53.558Z,26.01
2018-08-06T05:49:25.577Z,25.94
2018-08-06T05:49:57.589Z,25.94
2018-08-06T05:50:29.602Z,26.05
2018-08-06T05:51:01.625Z,26.12
2018-08-06T05:51:33.643Z,26.21
2018-08-06T05:52:05.691Z,26.29
2018-08-06T05:52:37.753Z,26.33
2018-08-06T05:53:09.836Z,26.25
2018-08-06T05:53:41.822Z,26.21
2018-08-06T05:54:13.826Z,26.12
2018-08-06T05:54:45.838Z,26.05
2018-08-06T05:55:17.859Z,25.97
2018-08-06T05:55:49.880Z,25.90
2018-08-06T05:56:21.889Z,25.97
2018-08-06T05:56:53.912Z,25.97
2018-08-06T05:57:25.938Z,25.99
2018-08-06T05:57:57.966Z,25.94
2018-08-06T05:58:29.988Z,25.98
2018-08-06T05:59:01.999Z,25.97
2018-08-06T05:59:34.014Z,25.96
2018-08-06T06:00:06.051Z,26.00
2018-08-06T06:00:38.052Z,26.00
2018-08-06T06:01:10.098Z,26.05
2018-08-06T06:01:42.111Z,26.07
2018-08-06T06:02:14.149Z,26.06
2018-08-06T06:02:46.173Z,26.03
2018-08-06T06:03:18.239Z,26.03
2018-08-06T06:03:50.191Z,25.96
2018-08-06T06:04:22.215Z,26.01
2018-08-06T06:04:54.228Z,26.04
2018-08-06T06:05:26.233Z,26.09
2018-08-06T06:05:58.258Z,26.13
2018-08-06T06:06:30.262Z,26.16
2018-08-06T06:07:02.279Z,26.15
2018-08-06T06:07:34.304Z,26.09
2018-08-06T06:08:06.302Z,26.07
2018-08-06T06:08:38.319Z,26.10
2018-08-06T06:09:10.332Z,26.09
2018-08-06T06:09:42.345Z,26.07
2018-08-06T06:10:14.358Z,26.09
2018-08-06T06:10:46.375Z,26.12
2018-08-06T06:11:18.385Z,26.16
2018-08-06T06:11:50.434Z,26.20
2018-08-06T06:12:22.465Z,26.26
2018-08-06T06:12:54.670Z,26.29
2018-08-06T06:13:26.694Z,26.25
2018-08-06T06:13:58.707Z,26.22
2018-08-06T06:14:30.724Z,26.14
2018-08-06T06:15:02.725Z,26.03
2018-08-06T06:15:34.751Z,26.00
2018-08-06T06:16:06.765Z,25.98
2018-08-06T06:16:38.825Z,25.99
2018-08-06T06:17:10.865Z,26.03
2018-08-06T06:17:42.876Z,26.01
2018-08-06T06:18:14.896Z,25.99
2018-08-06T06:18:46.919Z,25.97
2018-08-06T06:19:18.953Z,25.97
2018-08-06T06:19:50.940Z,25.92
2018-08-06T06:20:22.959Z,25.91
2018-08-06T06:20:54.969Z,25.94
2018-08-06T06:21:27.021Z,26.01
2018-08-06T06:21:59.033Z,26.04
2018-08-06T06:22:31.076Z,26.11
2018-08-06T06:23:03.101Z,26.12
2018-08-06T06:23:35.113Z,26.13
2018-08-06T06:24:07.140Z,26.18
2018-08-06T06:24:39.139Z,26.24
2018-08-06T06:25:11.148Z,26.31
2018-08-06T06:25:43.168Z,26.34
2018-08-06T06:26:15.181Z,26.34
2018-08-06T06:26:47.198Z,26.34
2018-08-06T06:27:19.221Z,26.28
2018-08-06T06:27:51.242Z,26.24
2018-08-06T06:28:23.259Z,26.16
2018-08-06T06:28:55.274Z,26.17
2018-08-06T06:29:27.284Z,26.20
2018-08-06T06:29:59.307Z,26.23
2018-08-06T06:30:31.342Z,26.24
2018-08-06T06:31:03.352Z,26.24
2018-08-06T06:31:35.354Z,26.21
2018-08-06T06:32:07.370Z,26.22
2018-08-06T06:32:39.411Z,26.23
2018-08-06T06:33:11.425Z,26.15
2018-08-06T06:33:43.428Z,26.15
2018-08-06T06:34:15.453Z,26.13
2018-08-06T06:34:47.522Z,26.14
2018-08-06T06:35:19.490Z,26.18
2018-08-06T06:35:51.500Z,26.18
2018-08-06T06:36:23.521Z,26.20
2018-08-06T06:36:55.579Z,26.14
2018-08-06T06:37:27.594Z,26.14
2018-08-06T06:37:59.627Z,26.16
2018-08-06T06:38:31.649Z,26.17
2018-08-06T06:39:03.666Z,26.17
2018-08-06T06:39:35.673Z,26.16
2018-08-06T06:40:07.700Z,26.19
2018-08-06T06:40:39.716Z,26.20
2018-08-06T06:41:11.725Z,26.23
2018-08-06T06:41:43.747Z,26.20
2018-08-06T06:42:15.743Z,26.28
2018-08-06T06:42:47.749Z,26.34
2018-08-06T06:43:19.764Z,26.40
2018-08-06T06:43:51.773Z,26.34
2018-08-06T06:44:23.792Z,26.30
2018-08-06T06:44:55.821Z,26.28
2018-08-06T06:45:27.832Z,26.28
2018-08-06T06:45:59.843Z,26.30
2018-08-06T06:46:31.848Z,26.30
2018-08-06T06:47:03.977Z,26.30
2018-08-06T06:47:35.953Z,26.30
2018-08-06T06:48:07.959Z,26.31
2018-08-06T06:48:39.969Z,26.33
2018-08-06T06:49:12.044Z,26.35
2018-08-06T06:49:43.998Z,26.38
2018-08-06T06:50:16.017Z,26.40
2018-08-06T06:50:48.028Z,26.38
2018-08-06T06:51:20.035Z,26.38
2018-08-06T06:51:52.069Z,26.32
2018-08-06T06:52:24.082Z,26.32